Time;durP1;ratioP1;P1;durP2;ratioP2;P2;SDS_P1;SDS_P2;PMS_P1;PMS_P2;Temp;Humidity;BMP_temperature;BMP_pressure;BME280_temperature;BME280_humidity;BME280_pressure;Samples;Min_cycle;Max_cycle;Signal;HPM_P1;HPM_P2
2023/04/26 00:00:17;;;;;;;6.78;5.22;;;;;;;10.08;61.25;92925.91;4970083;28;20022;-79
2023/04/26 00:02:42;;;;;;;5.03;4.53;;;;;;;9.94;60.91;92920.13;4972458;28;20033;-79
2023/04/26 00:05:08;;;;;;;7.60;4.82;;;;;;;10.09;60.86;92940.72;4972981;28;20396;-78
2023/04/26 00:07:34;;;;;;;6.90;4.95;;;;;;;10.02;61.17;92927.25;4972393;28;20422;-79
2023/04/26 00:10:00;;;;;;;5.18;4.65;;;;;;;9.90;60.89;92908.63;4974472;28;20527;-79
2023/04/26 00:12:25;;;;;;;7.45;4.80;;;;;;;9.97;60.63;92927.44;4969498;28;20030;-79
2023/04/26 00:14:51;;;;;;;8.57;6.22;;;;;;;9.88;60.24;92910.81;4953334;28;20311;-79
2023/04/26 00:17:17;;;;;;;6.93;5.40;;;;;;;9.89;60.41;92909.72;4954220;28;20142;-79
2023/04/26 00:19:42;;;;;;;6.55;5.00;;;;;;;9.83;60.11;92909.16;4954167;28;20060;-79
2023/04/26 00:22:08;;;;;;;7.40;5.68;;;;;;;9.73;60.37;92903.50;4953298;28;20038;-78
2023/04/26 00:24:33;;;;;;;6.30;5.32;;;;;;;9.72;60.58;92910.69;4940897;28;20043;-79
2023/04/26 00:27:00;;;;;;;5.97;5.32;;;;;;;9.67;60.46;92904.81;4955553;28;20026;-79
2023/04/26 00:29:26;;;;;;;5.57;5.07;;;;;;;9.69;60.21;92905.25;4954478;28;20038;-79
2023/04/26 00:31:51;;;;;;;6.00;5.03;;;;;;;9.57;61.15;92897.28;4953627;28;20502;-79
2023/04/26 00:34:17;;;;;;;5.70;4.68;;;;;;;9.56;61.04;92893.84;4954314;28;20122;-79
2023/04/26 00:36:42;;;;;;;6.00;5.40;;;;;;;9.52;61.08;92889.50;4960886;28;20120;-79
2023/04/26 00:39:09;;;;;;;6.50;5.85;;;;;;;9.53;60.99;92896.38;4952285;28;20049;-79
2023/04/26 00:41:35;;;;;;;11.40;5.13;;;;;;;9.21;61.03;92850.16;4956710;28;20399;-78
2023/04/26 00:44:00;;;;;;;6.30;4.93;;;;;;;9.45;61.33;92898.00;4954309;28;20526;-79
2023/04/26 00:46:27;;;;;;;6.68;5.03;;;;;;;9.46;61.56;92894.25;4953589;28;20082;-79
2023/04/26 00:48:55;;;;;;;6.70;5.20;;;;;;;9.48;61.29;92902.66;4953793;28;20457;-79
2023/04/26 00:51:21;;;;;;;8.63;5.50;;;;;;;9.45;60.51;92887.38;4954380;28;20031;-77
2023/04/26 00:53:47;;;;;;;6.25;5.63;;;;;;;9.34;60.58;92875.66;4953392;28;20041;-79
2023/04/26 00:56:15;;;;;;;6.00;4.88;;;;;;;9.52;60.10;92892.16;4950216;28;20619;-79
2023/04/26 00:58:41;;;;;;;7.20;5.40;;;;;;;9.34;60.00;92876.41;4953275;28;20042;-78
2023/04/26 01:01:06;;;;;;;7.63;5.32;;;;;;;9.36;60.25;92895.44;4955310;28;20839;-78
2023/04/26 01:03:33;;;;;;;6.22;5.20;;;;;;;9.25;60.97;92894.28;4954113;28;20389;-78
2023/04/26 01:05:58;;;;;;;8.48;6.07;;;;;;;9.30;60.75;92890.66;4952742;28;20067;-78
2023/04/26 01:08:24;;;;;;;5.97;4.97;;;;;;;9.16;61.05;92888.28;4952761;28;20123;-78
2023/04/26 01:10:49;;;;;;;9.07;5.53;;;;;;;9.11;61.58;92891.13;4949577;28;20066;-79
2023/04/26 01:13:15;;;;;;;5.70;5.13;;;;;;;9.18;61.52;92898.56;4952442;28;20089;-77
2023/04/26 01:15:45;;;;;;;7.85;5.07;;;;;;;9.09;61.54;92893.31;4948949;28;20038;-79
2023/04/26 01:18:10;;;;;;;6.82;5.50;;;;;;;9.00;61.18;92874.03;4955431;28;20073;-79
2023/04/26 01:20:36;;;;;;;5.57;5.05;;;;;;;9.04;61.54;92877.59;4953264;28;20031;-80
2023/04/26 01:23:01;;;;;;;5.35;4.68;;;;;;;9.10;60.56;92878.16;4952813;28;20552;-79
2023/04/26 01:25:27;;;;;;;6.22;4.80;;;;;;;9.00;60.30;92876.69;4952920;28;20046;-79
2023/04/26 01:27:52;;;;;;;7.88;5.95;;;;;;;9.06;60.55;92886.00;4953929;28;20460;-78
2023/04/26 01:30:18;;;;;;;8.27;5.40;;;;;;;9.00;60.78;92879.34;4951081;28;20018;-78
2023/04/26 01:32:43;;;;;;;5.28;4.78;;;;;;;8.98;60.87;92885.00;4952761;28;20038;-79
2023/04/26 01:35:09;;;;;;;5.90;5.28;;;;;;;9.06;61.14;92904.56;4952029;28;20039;-78
2023/04/26 01:37:35;;;;;;;8.27;5.32;;;;;;;8.87;61.19;92873.22;4954706;28;20031;-78
2023/04/26 01:40:01;;;;;;;5.93;5.32;;;;;;;8.87;61.37;92872.44;4958446;28;20081;-79
2023/04/26 01:42:26;;;;;;;5.72;5.13;;;;;;;9.01;61.66;92907.41;4956307;28;20038;-78
2023/04/26 01:44:52;;;;;;;5.93;5.10;;;;;;;8.87;61.82;92891.78;4958803;28;20027;-80
2023/04/26 01:47:17;;;;;;;6.05;5.45;;;;;;;8.88;62.40;92903.94;4959109;28;20038;-79
2023/04/26 01:49:43;;;;;;;6.38;5.22;;;;;;;8.80;62.62;92893.41;4959735;28;20565;-80
2023/04/26 01:52:11;;;;;;;8.15;5.20;;;;;;;8.79;63.06;92891.84;4959457;28;20034;-78
2023/04/26 01:54:39;;;;;;;8.05;7.25;;;;;;;8.91;62.95;92894.53;4956193;28;20092;-78
2023/04/26 01:57:04;;;;;;;7.68;6.00;;;;;;;8.65;62.95;92855.00;4959226;28;20035;-79
2023/04/26 01:59:29;;;;;;;8.65;5.72;;;;;;;8.82;62.67;92878.72;4955230;28;20049;-79
2023/04/26 02:01:55;;;;;;;7.35;5.97;;;;;;;8.89;63.09;92892.25;4960136;28;20039;-79
2023/04/26 02:04:20;;;;;;;7.28;6.00;;;;;;;8.87;63.08;92889.13;4956269;28;20034;-79
2023/04/26 02:06:45;;;;;;;6.45;5.75;;;;;;;8.89;62.97;92881.63;4958758;28;20043;-79
2023/04/26 02:09:11;;;;;;;8.30;6.57;;;;;;;8.90;63.25;92877.09;4956651;28;20027;-79
2023/04/26 02:11:36;;;;;;;7.50;5.40;;;;;;;8.81;62.95;92863.13;4958187;28;20039;-79
2023/04/26 02:14:02;;;;;;;7.68;6.20;;;;;;;8.82;62.73;92862.03;4949603;28;20081;-79
2023/04/26 02:16:27;;;;;;;8.52;6.63;;;;;;;8.77;62.88;92854.28;4956191;28;20035;-78
2023/04/26 02:18:53;;;;;;;8.02;6.75;;;;;;;8.86;63.36;92866.34;4954658;28;20919;-79
2023/04/26 02:21:20;;;;;;;7.57;6.35;;;;;;;8.91;62.91;92868.03;4957057;28;20057;-79
2023/04/26 02:23:45;;;;;;;10.20;6.70;;;;;;;8.93;63.25;92873.78;4955396;28;20135;-79
2023/04/26 02:26:11;;;;;;;8.07;7.28;;;;;;;8.90;63.10;92871.81;4957746;28;20145;-79
2023/04/26 02:28:37;;;;;;;10.43;7.00;;;;;;;8.94;63.03;92878.00;4953069;28;20035;-79
2023/04/26 02:31:02;;;;;;;10.38;6.65;;;;;;;8.81;63.06;92847.22;4958435;28;20073;-78
2023/04/26 02:33:28;;;;;;;9.60;7.15;;;;;;;8.94;63.08;92873.47;4958817;28;20370;-79
2023/04/26 02:35:53;;;;;;;11.13;7.45;;;;;;;8.92;63.69;92865.06;4957346;28;20500;-77
2023/04/26 02:38:19;;;;;;;12.93;7.32;;;;;;;8.78;63.76;92853.97;4957536;28;20462;-79
2023/04/26 02:40:44;;;;;;;8.70;6.72;;;;;;;8.92;64.18;92874.91;4957191;28;20042;-78
2023/04/26 02:43:10;;;;;;;7.20;6.28;;;;;;;8.91;64.47;92868.81;4956690;28;20066;-79
2023/04/26 02:45:42;;;;;;;7.65;6.85;;;;;;;8.85;64.20;92853.44;4955895;28;20046;-78
2023/04/26 02:48:08;;;;;;;8.73;7.30;;;;;;;9.03;64.31;92871.53;4959482;28;20057;-79
2023/04/26 02:50:33;;;;;;;7.78;6.50;;;;;;;9.03;64.22;92855.63;4956819;28;20980;-79
2023/04/26 02:52:59;;;;;;;9.15;6.55;;;;;;;9.10;64.14;92862.25;4955292;28;20983;-78
2023/04/26 02:55:25;;;;;;;10.80;7.78;;;;;;;9.05;64.84;92855.28;4956107;28;20590;-79
2023/04/26 02:57:50;;;;;;;10.73;7.38;;;;;;;8.96;65.12;92838.66;4957101;28;20050;-78
2023/04/26 03:00:16;;;;;;;13.90;8.10;;;;;;;9.06;65.23;92858.69;4955036;28;20149;-78
2023/04/26 03:02:41;;;;;;;11.48;8.27;;;;;;;9.14;65.57;92871.16;4955194;28;20601;-78
2023/04/26 03:05:08;;;;;;;11.82;8.65;;;;;;;9.10;65.18;92857.72;4957668;28;20034;-78
2023/04/26 03:07:33;;;;;;;13.38;9.68;;;;;;;9.12;65.54;92860.88;4947460;28;20038;-78
2023/04/26 03:09:59;;;;;;;12.43;9.43;;;;;;;9.20;65.58;92861.88;4957223;28;20047;-79
2023/04/26 03:12:25;;;;;;;12.82;9.40;;;;;;;9.22;65.78;92859.69;4955055;28;20034;-78
2023/04/26 03:14:50;;;;;;;11.43;9.68;;;;;;;9.17;65.70;92847.41;4958932;28;20031;-78
2023/04/26 03:17:15;;;;;;;11.68;8.63;;;;;;;9.14;65.69;92829.50;4952416;28;20031;-78
2023/04/26 03:19:41;;;;;;;10.88;8.35;;;;;;;9.37;65.66;92857.19;4954687;28;20161;-79
2023/04/26 03:22:06;;;;;;;12.57;8.95;;;;;;;9.26;65.13;92842.78;4952629;28;20038;-77
2023/04/26 03:24:32;;;;;;;10.35;7.90;;;;;;;9.34;65.38;92849.13;4956401;28;20167;-78
2023/04/26 03:26:57;;;;;;;13.88;9.05;;;;;;;9.23;65.51;92843.44;4949312;28;20158;-79
2023/04/26 03:29:22;;;;;;;11.57;9.07;;;;;;;9.24;65.79;92844.97;4957047;28;20751;-78
2023/04/26 03:31:48;;;;;;;12.90;8.98;;;;;;;9.26;65.81;92849.97;4953104;28;20038;-78
2023/04/26 03:34:13;;;;;;;11.32;9.27;;;;;;;9.28;65.91;92847.78;4955910;28;20045;-77
2023/04/26 03:36:38;;;;;;;11.05;8.32;;;;;;;9.09;65.43;92815.63;4956211;28;20031;-79
2023/04/26 03:39:05;;;;;;;14.38;9.20;;;;;;;9.15;65.50;92825.72;4971564;28;20045;-78
2023/04/26 03:41:32;;;;;;;12.20;9.27;;;;;;;9.32;65.48;92846.78;4953480;28;21326;-79
2023/04/26 03:43:57;;;;;;;10.82;8.50;;;;;;;9.30;65.31;92848.97;4954090;28;20050;-80
2023/04/26 03:46:22;;;;;;;11.63;8.35;;;;;;;9.32;64.93;92856.63;4969000;28;20035;-78
2023/04/26 03:48:48;;;;;;;10.10;8.05;;;;;;;9.41;64.98;92873.22;4955153;28;20520;-78
2023/04/26 03:51:14;;;;;;;12.45;7.93;;;;;;;9.33;65.12;92861.59;4956930;28;20085;-79
2023/04/26 03:53:40;;;;;;;14.02;9.40;;;;;;;9.27;66.04;92872.75;4953938;28;20576;-77
2023/04/26 03:56:06;;;;;;;10.82;7.75;;;;;;;9.22;66.48;92860.47;4956318;28;20034;-79
2023/04/26 03:58:32;;;;;;;10.32;8.07;;;;;;;9.48;65.60;92878.00;4955512;28;20562;-79
2023/04/26 04:00:57;;;;;;;10.02;8.48;;;;;;;9.36;65.17;92852.19;4957176;28;20505;-78
2023/04/26 04:03:23;;;;;;;13.57;9.95;;;;;;;9.61;65.43;92892.84;4950792;28;20034;-78
2023/04/26 04:05:48;;;;;;;13.25;9.32;;;;;;;9.51;65.19;92864.06;4957165;28;20078;-78
2023/04/26 04:08:14;;;;;;;11.43;9.10;;;;;;;9.61;64.68;92869.75;4955162;28;20122;-79
2023/04/26 04:10:41;;;;;;;18.45;12.13;;;;;;;9.51;64.93;92875.47;4950009;28;20046;-77
2023/04/26 04:13:07;;;;;;;16.00;11.93;;;;;;;9.63;65.26;92895.97;4956431;28;20051;-79
2023/04/26 04:15:35;;;;;;;19.58;12.73;;;;;;;9.50;65.94;92873.91;4951967;28;20041;-78
2023/04/26 04:18:01;;;;;;;17.65;13.43;;;;;;;9.54;65.81;92874.03;4957569;28;20054;-77
2023/04/26 04:20:26;;;;;;;20.23;14.45;;;;;;;9.66;66.25;92892.63;4954174;28;20613;-78
2023/04/26 04:22:52;;;;;;;20.60;14.70;;;;;;;9.65;66.75;92886.56;4956342;28;20035;-78
2023/04/26 04:25:20;;;;;;;20.13;14.15;;;;;;;9.57;66.28;92878.69;4956114;28;20674;-76
2023/04/26 04:27:45;;;;;;;26.08;17.00;;;;;;;9.68;66.63;92901.81;4956198;28;20501;-77
2023/04/26 04:30:11;;;;;;;25.52;16.17;;;;;;;9.80;66.44;92906.38;4954669;28;20046;-77
2023/04/26 04:32:38;;;;;;;25.70;17.02;;;;;;;9.78;66.50;92890.03;4954793;28;20035;-77
2023/04/26 04:35:04;;;;;;;25.65;16.98;;;;;;;9.94;66.32;92909.50;4953018;28;20295;-77
2023/04/26 04:37:32;;;;;;;29.45;17.30;;;;;;;9.82;66.34;92906.84;4955567;28;20035;-78
2023/04/26 04:39:58;;;;;;;24.00;17.13;;;;;;;9.85;66.60;92916.78;4957205;28;20194;-78
2023/04/26 04:42:25;;;;;;;24.80;16.40;;;;;;;9.81;66.88;92905.28;4953895;28;20109;-77
2023/04/26 04:44:51;;;;;;;24.98;16.85;;;;;;;9.73;67.40;92908.81;4956355;28;20112;-76
2023/04/26 04:47:16;;;;;;;25.63;17.77;;;;;;;9.80;66.41;92898.41;4954726;28;20118;-76
2023/04/26 04:49:42;;;;;;;23.02;16.42;;;;;;;9.69;66.10;92884.00;4954232;28;20042;-77
2023/04/26 04:52:07;;;;;;;22.88;16.75;;;;;;;9.89;66.21;92901.75;4954713;28;20027;-78
2023/04/26 04:54:33;;;;;;;22.95;15.57;;;;;;;9.87;66.40;92903.97;4957486;28;20030;-78
2023/04/26 04:56:58;;;;;;;19.30;14.25;;;;;;;9.90;65.95;92887.38;4953140;28;20599;-77
2023/04/26 04:59:24;;;;;;;20.92;13.65;;;;;;;10.10;65.24;92907.75;4955393;28;20039;-74
2023/04/26 05:01:50;;;;;;;15.38;11.75;;;;;;;10.10;65.74;92917.59;4947755;28;20046;-77
2023/04/26 05:04:16;;;;;;;16.00;13.10;;;;;;;10.15;65.81;92914.72;4952188;28;20035;-78
2023/04/26 05:06:41;;;;;;;19.73;12.93;;;;;;;10.08;65.64;92904.63;4950550;28;20076;-77
2023/04/26 05:09:08;;;;;;;18.73;11.15;;;;;;;10.01;64.08;92872.56;4952623;28;20118;-77
2023/04/26 05:11:33;;;;;;;18.77;12.57;;;;;;;10.16;64.09;92906.44;4947410;28;20779;-78
2023/04/26 05:13:59;;;;;;;20.98;13.73;;;;;;;10.08;64.99;92894.00;4949826;28;20058;-77
2023/04/26 05:16:24;;;;;;;20.75;13.65;;;;;;;10.19;63.75;92910.28;4950113;28;20191;-78
2023/04/26 05:18:50;;;;;;;21.00;13.55;;;;;;;10.17;65.18;92910.63;4950717;28;20506;-76
2023/04/26 05:21:15;;;;;;;21.33;14.88;;;;;;;10.34;64.05;92920.28;4951932;28;20037;-78
2023/04/26 05:23:41;;;;;;;18.67;12.25;;;;;;;10.37;63.75;92913.56;4947850;28;20125;-78
2023/04/26 05:26:07;;;;;;;22.45;15.25;;;;;;;10.28;65.57;92925.03;4948230;28;20467;-78
2023/04/26 05:28:33;;;;;;;17.55;12.88;;;;;;;10.21;63.85;92903.56;4949784;28;20372;-77
2023/04/26 05:31:00;;;;;;;20.67;13.25;;;;;;;9.88;65.38;92926.75;4968274;28;20962;-77
2023/04/26 05:33:26;;;;;;;17.35;11.82;;;;;;;9.83;66.25;92901.19;4952888;28;20505;-76
2023/04/26 05:35:53;;;;;;;18.77;12.77;;;;;;;10.20;63.50;92912.63;4950545;28;20041;-77
2023/04/26 05:38:19;;;;;;;15.77;12.57;;;;;;;10.02;65.05;92892.72;4953262;28;20039;-77
2023/04/26 05:40:44;;;;;;;16.80;12.75;;;;;;;9.96;65.81;92907.31;4951484;28;20053;-78
2023/04/26 05:43:10;;;;;;;18.42;12.38;;;;;;;9.87;65.41;92903.97;4945860;28;20047;-77
2023/04/26 05:45:39;;;;;;;18.75;12.15;;;;;;;10.07;64.96;92913.75;4955251;28;20097;-76
2023/04/26 05:48:04;;;;;;;17.00;10.68;;;;;;;9.97;64.83;92902.78;4955413;28;20129;-78
2023/04/26 05:50:30;;;;;;;11.88;10.02;;;;;;;10.32;63.03;92936.53;4951676;28;20149;-79
2023/04/26 05:52:56;;;;;;;19.33;11.07;;;;;;;10.46;63.82;92932.81;4953509;28;20242;-78
2023/04/26 05:55:21;;;;;;;18.73;13.15;;;;;;;10.12;65.68;92921.47;4953353;28;20043;-78
2023/04/26 05:57:47;;;;;;;22.63;13.02;;;;;;;10.44;65.83;92927.06;4953366;28;20466;-79
2023/04/26 06:00:14;;;;;;;17.85;11.23;;;;;;;10.31;64.99;92940.31;4953294;28;20304;-78
2023/04/26 06:02:40;;;;;;;20.55;12.90;;;;;;;9.87;66.82;92914.59;4951426;28;20093;-78
2023/04/26 06:05:06;;;;;;;17.48;11.43;;;;;;;10.22;65.01;92922.94;4953762;28;20039;-78
2023/04/26 06:07:31;;;;;;;20.55;11.90;;;;;;;10.30;65.31;92903.44;4952860;28;20041;-77
2023/04/26 06:10:00;;;;;;;14.27;10.07;;;;;;;10.83;63.71;92942.31;4952025;28;20313;-77
2023/04/26 06:12:25;;;;;;;13.80;7.35;;;;;;;10.68;57.34;92927.81;4951589;28;20030;-78
2023/04/26 06:14:51;;;;;;;7.50;6.10;;;;;;;10.69;57.45;92944.53;4954498;28;20045;-78
2023/04/26 06:17:16;;;;;;;4.93;4.43;;;;;;;10.70;55.70;92941.56;4952752;28;20054;-77
2023/04/26 06:19:42;;;;;;;5.50;4.80;;;;;;;10.43;55.65;92920.19;4954411;28;20758;-78
2023/04/26 06:22:07;;;;;;;6.05;4.68;;;;;;;10.57;56.35;92933.91;4952009;28;20094;-77
2023/04/26 06:24:32;;;;;;;8.07;5.07;;;;;;;10.33;56.16;92932.78;4952063;28;20031;-78
2023/04/26 06:26:58;;;;;;;6.85;4.82;;;;;;;10.13;56.48;92930.22;4957144;28;20031;-78
2023/04/26 06:29:23;;;;;;;6.55;4.95;;;;;;;10.33;57.03;92946.06;4956041;28;20126;-78
2023/04/26 06:31:49;;;;;;;7.55;5.03;;;;;;;10.33;58.47;92950.59;4955594;28;20041;-77
2023/04/26 06:34:14;;;;;;;8.38;5.45;;;;;;;10.15;55.95;92949.25;4954697;28;20257;-78
2023/04/26 06:36:39;;;;;;;8.70;5.40;;;;;;;9.94;56.28;92925.44;4957594;28;20055;-79
2023/04/26 06:39:05;;;;;;;6.65;5.18;;;;;;;9.83;55.98;92924.31;4953758;28;20031;-78
2023/04/26 06:41:30;;;;;;;7.90;5.47;;;;;;;9.79;57.05;92923.41;4954274;28;20125;-77
2023/04/26 06:43:55;;;;;;;7.15;5.55;;;;;;;9.99;57.56;92956.31;4953817;28;20039;-78
2023/04/26 06:46:21;;;;;;;5.70;5.00;;;;;;;9.85;57.06;92953.97;4962748;28;20035;-78
2023/04/26 06:48:47;;;;;;;6.47;4.75;;;;;;;9.72;56.54;92944.44;4973284;28;20046;-78
2023/04/26 06:51:13;;;;;;;10.80;5.63;;;;;;;9.78;57.27;92953.75;4983191;28;20033;-77
2023/04/26 06:53:38;;;;;;;8.23;5.55;;;;;;;9.53;54.99;92960.06;4979174;28;20041;-76
2023/04/26 06:56:04;;;;;;;7.32;6.18;;;;;;;9.58;55.45;92960.66;4974694;28;20389;-76
2023/04/26 06:58:29;;;;;;;6.60;6.00;;;;;;;9.44;55.81;92958.25;4975387;28;20585;-78
2023/04/26 07:00:55;;;;;;;7.18;6.05;;;;;;;9.43;56.26;92954.06;4974884;28;20045;-79
2023/04/26 07:03:20;;;;;;;8.05;6.00;;;;;;;9.53;56.61;92968.81;4974596;28;20033;-76
2023/04/26 07:05:46;;;;;;;6.28;5.68;;;;;;;9.36;57.01;92947.72;4976916;28;20088;-77
2023/04/26 07:08:11;;;;;;;8.07;6.90;;;;;;;9.54;57.84;92958.94;4973792;28;20591;-77
2023/04/26 07:10:38;;;;;;;8.30;6.22;;;;;;;9.69;54.81;92961.00;4973283;28;20883;-77
2023/04/26 07:13:04;;;;;;;6.32;5.40;;;;;;;9.69;55.10;92959.13;4970547;28;20042;-77
2023/04/26 07:15:30;;;;;;;6.22;5.32;;;;;;;9.71;53.72;92953.50;4976464;28;20030;-77
2023/04/26 07:17:56;;;;;;;7.82;6.30;;;;;;;9.37;55.63;92928.84;4977483;28;20031;-76
2023/04/26 07:20:23;;;;;;;6.03;5.53;;;;;;;9.66;56.47;92940.44;4972727;28;20031;-76
2023/04/26 07:22:49;;;;;;;6.60;5.05;;;;;;;9.74;52.01;92947.50;4976481;28;20089;-77
2023/04/26 07:25:15;;;;;;;6.95;4.15;;;;;;;9.69;51.12;92931.78;4974712;28;20037;-78
2023/04/26 07:27:41;;;;;;;3.95;3.53;;;;;;;9.81;49.08;92943.25;4976275;28;20035;-76
2023/04/26 07:30:08;;;;;;;3.90;3.55;;;;;;;9.63;49.98;92919.84;4969329;28;20014;-79
2023/04/26 07:32:33;;;;;;;10.05;4.43;;;;;;;9.87;49.03;92947.25;4976132;28;20034;-77
2023/04/26 07:34:58;;;;;;;4.53;3.63;;;;;;;9.68;49.53;92943.53;4973273;28;20108;-78
2023/04/26 07:37:24;;;;;;;3.53;3.10;;;;;;;9.56;50.07;92930.22;4973099;28;20042;-79
2023/04/26 07:39:49;;;;;;;3.63;3.30;;;;;;;9.43;50.72;92943.47;4972317;28;20045;-78
2023/04/26 07:42:15;;;;;;;3.92;3.10;;;;;;;9.51;50.87;92952.44;4977755;28;20130;-78
2023/04/26 07:44:40;;;;;;;4.28;3.85;;;;;;;9.62;51.14;92971.38;4969551;28;20544;-77
2023/04/26 07:47:13;;;;;;;5.32;3.75;;;;;;;9.42;50.66;92959.69;4974535;28;20051;-79
2023/04/26 07:49:38;;;;;;;6.53;3.65;;;;;;;9.20;50.93;92981.25;4975622;28;20148;-79
2023/04/26 07:52:04;;;;;;;3.63;3.33;;;;;;;9.00;52.40;92964.97;4974117;28;20616;-79
2023/04/26 07:54:30;;;;;;;4.88;3.72;;;;;;;9.09;52.30;92975.56;4971286;28;20427;-79
2023/04/26 07:56:55;;;;;;;3.90;3.50;;;;;;;9.12;52.08;92969.63;4972629;28;20037;-79
2023/04/26 07:59:22;;;;;;;4.43;3.50;;;;;;;9.24;52.67;92977.63;4972762;28;20047;-80
2023/04/26 08:01:47;;;;;;;6.50;3.80;;;;;;;9.29;52.13;92985.38;4987579;28;20393;-78
2023/04/26 08:04:13;;;;;;;4.53;3.92;;;;;;;9.18;51.97;92978.16;4973590;28;20038;-77
2023/04/26 08:06:38;;;;;;;6.57;3.95;;;;;;;9.24;52.61;92959.06;4972391;28;20173;-79
2023/04/26 08:09:04;;;;;;;4.53;4.10;;;;;;;8.93;52.32;92940.88;4975442;28;20121;-77
2023/04/26 08:11:29;;;;;;;5.00;3.65;;;;;;;9.20;52.95;92976.72;4974026;28;20429;-78
2023/04/26 08:13:55;;;;;;;5.60;3.80;;;;;;;9.22;53.12;92979.84;4972245;28;20054;-79
2023/04/26 08:16:20;;;;;;;8.73;4.45;;;;;;;9.34;52.34;92982.53;4973630;28;20046;-79
2023/04/26 08:18:47;;;;;;;5.78;4.20;;;;;;;9.26;52.54;92978.09;4971211;28;20046;-77
2023/04/26 08:21:12;;;;;;;4.80;4.30;;;;;;;9.34;52.05;92976.47;4990167;28;20887;-77
2023/04/26 08:23:39;;;;;;;8.05;4.13;;;;;;;9.36;52.53;92990.19;4972912;28;20061;-76
2023/04/26 08:26:05;;;;;;;5.28;4.10;;;;;;;9.24;51.87;92971.56;4973624;28;20042;-77
2023/04/26 08:28:30;;;;;;;10.63;4.00;;;;;;;9.28;52.22;92973.25;4968448;28;20035;-79
2023/04/26 08:30:55;;;;;;;4.82;3.55;;;;;;;9.34;51.52;92977.22;4989725;28;20045;-79
2023/04/26 08:33:21;;;;;;;3.78;3.20;;;;;;;9.27;50.82;92971.69;4972652;28;20022;-77
2023/04/26 08:35:47;;;;;;;4.28;3.75;;;;;;;9.07;51.07;92951.22;4972320;28;20025;-79
2023/04/26 08:38:12;;;;;;;4.60;4.20;;;;;;;9.16;51.42;92937.91;4973521;28;20118;-78
2023/04/26 08:40:40;;;;;;;3.83;3.42;;;;;;;9.51;52.12;92991.47;4973880;28;21076;-78
2023/04/26 08:43:08;;;;;;;4.20;3.20;;;;;;;9.37;50.47;92971.28;4972714;28;20040;-78
2023/04/26 08:45:35;;;;;;;3.80;3.50;;;;;;;9.56;50.59;92984.09;4973045;28;21081;-77
2023/04/26 08:48:07;;;;;;;5.38;3.15;;;;;;;9.35;50.93;92957.56;4977157;28;20034;-77
2023/04/26 08:50:33;;;;;;;3.67;3.30;;;;;;;9.56;50.30;92968.16;4971725;28;20137;-79
2023/04/26 08:52:58;;;;;;;3.70;3.20;;;;;;;9.73;50.34;92993.78;4974011;28;20699;-78
2023/04/26 08:55:25;;;;;;;3.17;2.88;;;;;;;9.64;50.18;92979.78;4969720;28;20050;-77
2023/04/26 08:57:51;;;;;;;3.88;2.83;;;;;;;9.58;50.98;92967.84;4971973;28;20038;-78
2023/04/26 09:00:18;;;;;;;4.25;3.05;;;;;;;9.78;50.76;92996.22;4973687;28;20523;-78
2023/04/26 09:02:49;;;;;;;6.00;3.63;;;;;;;9.76;51.28;92993.91;4962807;28;20804;-78
2023/04/26 09:05:16;;;;;;;4.65;3.55;;;;;;;9.95;52.07;92982.78;4972859;28;20054;-79
2023/04/26 09:07:44;;;;;;;5.38;3.35;;;;;;;10.04;50.33;92983.44;4973660;28;20037;-77
2023/04/26 09:10:11;;;;;;;3.90;3.58;;;;;;;10.12;50.26;92987.88;4972694;28;20584;-79
2023/04/26 09:12:37;;;;;;;5.57;3.47;;;;;;;10.27;49.71;92981.94;4974497;28;20539;-78
2023/04/26 09:15:06;;;;;;;4.72;3.30;;;;;;;10.27;49.07;92992.56;4972750;28;20046;-78
2023/04/26 09:17:40;;;;;;;5.07;3.58;;;;;;;10.23;50.22;92996.22;4972443;28;20030;-78
2023/04/26 09:20:17;;;;;;;10.73;4.40;;;;;;;10.34;49.45;93007.97;4973070;28;20063;-78
2023/04/26 09:22:44;;;;;;;4.60;3.30;;;;;;;10.37;49.46;92986.06;4968417;28;20209;-78
2023/04/26 09:25:12;;;;;;;3.08;2.78;;;;;;;10.51;49.04;92991.88;4971884;28;20101;-78
2023/04/26 09:27:40;;;;;;;4.60;3.35;;;;;;;10.60;49.45;92981.13;4971231;28;20038;-78
2023/04/26 09:30:06;;;;;;;3.70;3.33;;;;;;;10.84;49.40;93002.38;4973059;28;20515;-78
2023/04/26 09:32:44;;;;;;;4.22;3.40;;;;;;;10.82;48.72;93006.47;4972287;28;20050;-76
2023/04/26 09:35:35;;;;;;;3.55;2.72;;;;;;;10.77;48.11;92988.84;4965263;28;20541;-78
2023/04/26 09:38:12;;;;;;;3.97;3.00;;;;;;;10.88;47.51;92983.84;4971776;28;20043;-77
2023/04/26 09:40:46;;;;;;;4.05;2.78;;;;;;;10.96;48.29;92998.91;4971295;28;20080;-78
2023/04/26 09:43:13;;;;;;;5.85;3.15;;;;;;;10.85;46.85;92980.00;4973973;28;20393;-78
2023/04/26 09:45:45;;;;;;;4.10;2.90;;;;;;;10.92;46.46;92982.84;4972591;28;20037;-78
2023/04/26 09:48:29;;;;;;;2.83;2.47;;;;;;;10.94;47.05;92987.84;4971716;28;20052;-77
2023/04/26 09:51:12;;;;;;;4.72;2.83;;;;;;;11.10;47.00;92984.16;4971864;28;20042;-77
2023/04/26 09:53:41;;;;;;;3.78;3.00;;;;;;;11.15;48.20;92983.91;4969722;28;20240;-78
2023/04/26 09:56:12;;;;;;;6.85;3.33;;;;;;;11.36;47.21;92972.34;4969226;28;20528;-78
2023/04/26 09:58:57;;;;;;;3.30;2.40;;;;;;;11.37;47.08;92989.88;4969724;28;20042;-78
2023/04/26 10:01:25;;;;;;;3.10;2.80;;;;;;;11.36;46.11;92977.66;4973045;28;20038;-77
2023/04/26 10:03:51;;;;;;;5.13;2.80;;;;;;;11.43;45.93;92976.00;4975134;28;20034;-78
2023/04/26 10:06:17;;;;;;;8.38;2.85;;;;;;;11.53;45.77;92988.84;4979294;28;20052;-76
2023/04/26 10:08:43;;;;;;;2.92;2.40;;;;;;;11.35;45.99;92960.13;4979134;28;20053;-79
2023/04/26 10:11:12;;;;;;;3.05;2.75;;;;;;;11.60;45.69;92980.28;4976238;28;20034;-78
2023/04/26 10:13:41;;;;;;;2.47;2.22;;;;;;;11.57;46.54;92968.44;4971745;28;20376;-79
2023/04/26 10:16:08;;;;;;;4.20;2.35;;;;;;;11.25;44.78;92957.97;4977158;28;20026;-79
2023/04/26 10:18:35;;;;;;;5.45;2.60;;;;;;;11.36;45.83;92977.66;4983780;28;20033;-79
2023/04/26 10:21:10;;;;;;;2.17;1.98;;;;;;;11.62;44.79;92975.41;4975594;28;20801;-78
2023/04/26 10:23:36;;;;;;;3.13;2.20;;;;;;;11.69;45.72;92978.22;4973924;28;20508;-79
2023/04/26 10:26:02;;;;;;;1.90;1.63;;;;;;;11.73;44.14;92965.81;4979332;28;20069;-79
2023/04/26 10:28:47;;;;;;;2.10;1.90;;;;;;;11.68;43.43;92942.09;4973454;28;20161;-79
2023/04/26 10:31:13;;;;;;;2.40;1.95;;;;;;;11.70;44.68;92963.81;4973805;28;20038;-79
2023/04/26 10:33:38;;;;;;;2.88;2.30;;;;;;;11.69;43.63;92964.13;4974620;28;20579;-79
2023/04/26 10:36:07;;;;;;;1.80;1.67;;;;;;;11.76;43.65;92986.44;4977099;28;20412;-79
2023/04/26 10:38:34;;;;;;;2.47;2.05;;;;;;;11.70;43.86;92971.81;4974891;28;20586;-79
2023/04/26 10:41:33;;;;;;;2.50;1.77;;;;;;;11.73;42.92;92973.81;4975401;28;20045;-79
2023/04/26 10:44:20;;;;;;;2.83;1.60;;;;;;;11.71;42.64;92962.69;4989742;28;20392;-78
2023/04/26 10:46:50;;;;;;;1.58;1.48;;;;;;;11.62;42.14;92977.28;4974376;28;20050;-80
2023/04/26 10:49:18;;;;;;;5.05;1.65;;;;;;;11.46;42.99;92977.19;4975429;28;20046;-79
2023/04/26 10:52:13;;;;;;;6.10;1.80;;;;;;;11.35;42.44;92970.78;4975165;28;20057;-79
2023/04/26 10:54:57;;;;;;;2.10;1.90;;;;;;;11.48;43.03;92970.44;4975212;28;20041;-78
2023/04/26 10:57:47;;;;;;;2.42;1.58;;;;;;;11.52;42.62;92960.69;4983410;28;20728;-78
2023/04/26 11:00:16;;;;;;;2.17;1.60;;;;;;;11.46;41.80;92971.88;4970414;28;20311;-79
2023/04/26 11:02:58;;;;;;;1.85;1.67;;;;;;;11.32;42.54;92955.50;4974246;28;20095;-79
2023/04/26 11:05:53;;;;;;;3.05;1.73;;;;;;;11.55;41.87;92965.31;4970165;28;20039;-79
2023/04/26 11:08:20;;;;;;;1.50;1.40;;;;;;;11.71;40.74;92968.03;4966801;28;20073;-79
2023/04/26 11:10:56;;;;;;;4.90;1.73;;;;;;;11.70;41.74;92971.81;4972891;28;20065;-79
2023/04/26 11:13:22;;;;;;;2.00;1.63;;;;;;;11.52;40.37;92971.31;4973934;28;20524;-78
2023/04/26 11:15:58;;;;;;;2.80;1.70;;;;;;;11.40;41.06;92952.69;4976106;28;20048;-80
2023/04/26 11:18:24;;;;;;;5.60;1.80;;;;;;;11.56;41.54;92950.88;4972687;28;20400;-78
2023/04/26 11:20:50;;;;;;;5.65;2.53;;;;;;;11.61;42.19;92960.53;4973928;28;20022;-78
2023/04/26 11:23:18;;;;;;;3.00;2.47;;;;;;;11.69;41.75;92962.25;4973815;28;20133;-77
2023/04/26 11:25:43;;;;;;;2.53;1.85;;;;;;;11.74;40.63;92982.53;4972971;28;20042;-79
2023/04/26 11:28:09;;;;;;;1.63;1.30;;;;;;;11.64;41.36;92935.88;4989565;28;20084;-79
2023/04/26 11:30:35;;;;;;;1.77;1.55;;;;;;;11.72;41.27;92956.25;4965806;28;20109;-77
2023/04/26 11:33:05;;;;;;;2.65;1.60;;;;;;;11.81;41.39;92948.88;4968082;28;20034;-79